sensor_id;sensor_type;location;lat;lon;timestamp;pressure;altitude;pressure_sealevel;temperature;humidity
6500;BME280;3283;52.330;9.772;2023-07-30T13:03:05;100246.94;;;23.08;84.37
6500;BME280;3283;52.330;9.772;2023-07-30T13:05:31;100264.13;;;22.92;83.69
6500;BME280;3283;52.330;9.772;2023-07-30T13:07:56;100254.25;;;23.06;81.76
6500;BME280;3283;52.330;9.772;2023-07-30T13:10:21;100252.19;;;22.96;84.60
6500;BME280;3283;52.330;9.772;2023-07-30T13:12:47;100255.91;;;23.32;87.61
6500;BME280;3283;52.330;9.772;2023-07-30T13:15:12;100255.56;;;23.86;86.29
6500;BME280;3283;52.330;9.772;2023-07-30T13:17:38;100257.06;;;24.38;82.15
6500;BME280;3283;52.330;9.772;2023-07-30T13:20:04;100249.66;;;24.18;74.26
6500;BME280;3283;52.330;9.772;2023-07-30T13:22:29;100238.88;;;23.70;73.30
6500;BME280;3283;52.330;9.772;2023-07-30T13:24:55;100246.13;;;23.80;76.78
6500;BME280;3283;52.330;9.772;2023-07-30T13:27:20;100234.28;;;23.46;76.23
6500;BME280;3283;52.330;9.772;2023-07-30T13:29:46;100231.00;;;23.30;77.54
6500;BME280;3283;52.330;9.772;2023-07-30T13:32:13;100236.22;;;23.44;79.29
6500;BME280;3283;52.330;9.772;2023-07-30T13:34:38;100223.44;;;23.48;79.90
6500;BME280;3283;52.330;9.772;2023-07-30T13:37:04;100230.16;;;23.53;79.54
6500;BME280;3283;52.330;9.772;2023-07-30T13:39:29;100221.53;;;23.37;78.08
6500;BME280;3283;52.330;9.772;2023-07-30T13:41:55;100231.13;;;23.03;79.58
6500;BME280;3283;52.330;9.772;2023-07-30T13:44:20;100221.34;;;23.15;79.37
6500;BME280;3283;52.330;9.772;2023-07-30T13:46:45;100225.69;;;23.05;79.20
6500;BME280;3283;52.330;9.772;2023-07-30T13:49:11;100231.00;;;23.17;78.45
6500;BME280;3283;52.330;9.772;2023-07-30T13:51:36;100226.63;;;23.03;77.82
6500;BME280;3283;52.330;9.772;2023-07-30T13:54:02;100231.94;;;23.42;78.64
6500;BME280;3283;52.330;9.772;2023-07-30T13:56:28;100234.66;;;23.29;77.93
6500;BME280;3283;52.330;9.772;2023-07-30T13:58:54;100247.88;;;23.19;76.45
6500;BME280;3283;52.330;9.772;2023-07-30T14:01:19;100252.22;;;23.46;75.73
6500;BME280;3283;52.330;9.772;2023-07-30T14:03:45;100236.38;;;23.17;75.39
6500;BME280;3283;52.330;9.772;2023-07-30T14:06:11;100240.91;;;23.17;78.20
6500;BME280;3283;52.330;9.772;2023-07-30T14:08:36;100231.44;;;23.24;77.51
6500;BME280;3283;52.330;9.772;2023-07-30T14:11:01;100237.91;;;23.09;76.72
6500;BME280;3283;52.330;9.772;2023-07-30T14:13:27;100236.19;;;23.08;76.07
6500;BME280;3283;52.330;9.772;2023-07-30T14:15:52;100238.56;;;23.12;76.77
6500;BME280;3283;52.330;9.772;2023-07-30T14:18:18;100236.19;;;23.20;78.21
6500;BME280;3283;52.330;9.772;2023-07-30T14:20:43;100237.88;;;23.34;75.29
6500;BME280;3283;52.330;9.772;2023-07-30T14:23:09;100237.06;;;23.70;72.21
6500;BME280;3283;52.330;9.772;2023-07-30T14:25:34;100242.25;;;23.84;71.02
6500;BME280;3283;52.330;9.772;2023-07-30T14:28:00;100244.31;;;23.81;69.56
6500;BME280;3283;52.330;9.772;2023-07-30T14:30:25;100242.59;;;23.80;71.19
6500;BME280;3283;52.330;9.772;2023-07-30T14:32:50;100245.84;;;23.60;71.77
6500;BME280;3283;52.330;9.772;2023-07-30T14:35:16;100253.00;;;23.48;73.69
6500;BME280;3283;52.330;9.772;2023-07-30T14:37:41;100242.47;;;23.32;72.49
6500;BME280;3283;52.330;9.772;2023-07-30T14:40:07;100252.06;;;23.23;72.48
6500;BME280;3283;52.330;9.772;2023-07-30T14:42:32;100254.66;;;23.12;74.76
6500;BME280;3283;52.330;9.772;2023-07-30T14:44:58;100249.72;;;23.19;74.72
6500;BME280;3283;52.330;9.772;2023-07-30T14:47:23;100266.22;;;23.25;74.26
6500;BME280;3283;52.330;9.772;2023-07-30T14:49:48;100254.63;;;23.25;74.95
6500;BME280;3283;52.330;9.772;2023-07-30T14:52:16;100263.25;;;23.05;75.17
6500;BME280;3283;52.330;9.772;2023-07-30T14:54:44;100280.75;;;22.45;78.16
6500;BME280;3283;52.330;9.772;2023-07-30T14:57:09;100277.53;;;22.13;82.52
6500;BME280;3283;52.330;9.772;2023-07-30T14:59:34;100270.63;;;22.23;81.51
6500;BME280;3283;52.330;9.772;2023-07-30T15:02:00;100269.84;;;21.94;81.36
6500;BME280;3283;52.330;9.772;2023-07-30T15:04:26;100274.22;;;21.95;81.04
6500;BME280;3283;52.330;9.772;2023-07-30T15:06:51;100271.16;;;22.01;81.59
6500;BME280;3283;52.330;9.772;2023-07-30T15:09:16;100258.44;;;21.90;82.43
6500;BME280;3283;52.330;9.772;2023-07-30T15:11:42;100283.66;;;21.74;82.90
6500;BME280;3283;52.330;9.772;2023-07-30T15:14:07;100289.72;;;21.34;83.64
6500;BME280;3283;52.330;9.772;2023-07-30T15:16:32;100281.97;;;21.16;87.74
6500;BME280;3283;52.330;9.772;2023-07-30T15:18:57;100289.72;;;21.49;86.53
6500;BME280;3283;52.330;9.772;2023-07-30T15:21:23;100285.56;;;22.13;83.79
6500;BME280;3283;52.330;9.772;2023-07-30T15:23:48;100286.69;;;22.23;81.41
